Accueil
METAR-TAF:

METAR-TAF

Aéroports :

Aéroport de Lugano

Lugano, Suisse

latitude: 46-00N, longitude: 008-58E, altitude: 273 m

Observation

Le bulletin a été fait il y a 41 minutes, à 16:20 UTC
Vent 5 kt de sud
Température 14°C
Humidité 51%
Pression 1014 hPa
Visibilité 10 km ou plus
Nuages épars à une hauteur de 10000 ft

METAR: LSZA 051620Z 19005KT 9999 SCT100 14/04 Q1014 NOSIG

Heure: 18:01 (17:01 UTC)

Prévision

Le bulletin a été fait il y a 2 heures et 36 minutes, à 14:25 UTC
Prévision valable du 05 à 15 UTC au 05 à 24 UTC
Vent 8 kt de sud
Visibilité 10 km ou plus
Quelques nuages à une hauteur de 6000 ft

TAF: LSZA 051425Z 0515/0524 19008KT 9999 FEW060

Observations et prévisions météorologiques de plus de 4000 aéroports (messages METAR et TAF).

Les stations disponibles sont représentées par des disques jaunes et rouges sur la carte.

Passer la souris dessus pour voir le nom de la station.

Cliquer dessus pour voir les observations et prévisions météorologiques.

Pour changer de carte: cliquez sur les boutons verts avec une croix noire pour zoomer, sur le bouton vert avec un tiret pour effectuer un zoom arrière, ou sur les flèches vertes pour les cartes adjacentes.


METAR-TAF: